Elmora, New Jersey
Current Conditions -  °F | °C
As of 12:15 AM on Tuesday 21 Oct 2014 (Local Time) from KLDJ Reporting Station
Clear Clear  
Wind Chill: 57°   Ceiling: Unl
Heat Index: 57°   Visibility: 10mi
Dew Point: 47°   Wind: 0mph
Humidity: 69%   Direction: NA
Pressure: 29.98"   Gusts: NA
Location:  40.6531°N, 74.2169°W
Report Text: KLDJ 210415Z AUTO 00000KT 10SM CLR 14/08 A2998 RMK AO2 T01400084
Loading
Personal Weather Stations






























Interactive Weather Map New forecast layout! Learn more

10-Day Weather Forecast

Advertisements
Track Severe Weather on mobile